createdAt,value
2023-01-19T00:00:23.590Z,95277.88
2023-01-19T00:01:55.169Z,95284.47
2023-01-19T00:03:26.724Z,95289.94
2023-01-19T00:04:59.370Z,95288.38
2023-01-19T00:06:31.548Z,95284.69
2023-01-19T00:08:14.631Z,95287.31
2023-01-19T00:09:46.415Z,95283.84
2023-01-19T00:11:19.105Z,95283.31
2023-01-19T00:12:50.704Z,95286.81
2023-01-19T00:14:22.608Z,95283.53
2023-01-19T00:15:55.557Z,95288.09
2023-01-19T00:17:27.139Z,95287.09
2023-01-19T00:19:01.132Z,95287.34
2023-01-19T00:20:32.899Z,95298.00
2023-01-19T00:22:05.982Z,95285.63
2023-01-19T00:23:37.563Z,95292.91
2023-01-19T00:25:09.872Z,95294.38
2023-01-19T00:26:42.779Z,95289.16
2023-01-19T00:28:15.785Z,95295.38
2023-01-19T00:29:47.389Z,95290.63
2023-01-19T00:31:21.540Z,95298.34
2023-01-19T00:32:53.251Z,95302.63
2023-01-19T00:34:24.855Z,95290.41
2023-01-19T00:35:56.446Z,95299.69
2023-01-19T00:37:28.026Z,95299.19
2023-01-19T00:38:59.627Z,95300.44
2023-01-19T00:40:31.209Z,95299.50
2023-01-19T00:42:25.720Z,95303.84
2023-01-19T00:43:57.304Z,95305.63
2023-01-19T00:45:28.964Z,95306.91
2023-01-19T00:47:04.792Z,95299.72
2023-01-19T00:48:36.375Z,95303.41
2023-01-19T00:50:11.599Z,95305.94
2023-01-19T00:51:43.902Z,95304.66
2023-01-19T00:53:15.455Z,95307.88
2023-01-19T00:54:47.047Z,95307.47
2023-01-19T00:56:18.630Z,95313.25
2023-01-19T00:57:50.198Z,95308.13
2023-01-19T00:59:21.786Z,95306.69
2023-01-19T01:00:53.899Z,95311.63
2023-01-19T01:02:27.053Z,95316.09
2023-01-19T01:03:58.732Z,95317.72
2023-01-19T01:05:30.355Z,95317.53
2023-01-19T01:07:02.051Z,95315.59
2023-01-19T01:08:33.699Z,95317.06
2023-01-19T01:10:06.923Z,95318.59
2023-01-19T01:11:38.620Z,95324.25
2023-01-19T01:13:20.243Z,95325.59
2023-01-19T01:14:55.500Z,95319.50
2023-01-19T01:16:27.112Z,95321.50
2023-01-19T01:18:00.040Z,95330.34
2023-01-19T01:19:31.700Z,95329.28
2023-01-19T01:21:03.508Z,95331.03
2023-01-19T01:22:35.342Z,95331.41
2023-01-19T01:24:07.930Z,95337.06
2023-01-19T01:25:39.513Z,95337.16
2023-01-19T01:27:11.796Z,95325.94
2023-01-19T01:28:43.363Z,95332.00
2023-01-19T01:30:15.363Z,95331.41
2023-01-19T01:31:47.016Z,95341.09
2023-01-19T01:33:41.355Z,95337.25
2023-01-19T01:35:11.758Z,95348.19
2023-01-19T01:36:43.559Z,95334.72
2023-01-19T01:38:15.279Z,95347.69
2023-01-19T01:39:46.855Z,95340.72
2023-01-19T01:41:19.408Z,95346.78
2023-01-19T01:42:53.512Z,95345.38
2023-01-19T01:44:50.902Z,95343.81
2023-01-19T01:46:22.494Z,95343.81
2023-01-19T01:47:54.108Z,95351.38
2023-01-19T01:49:27.081Z,95345.25
2023-01-19T01:51:18.198Z,95352.63
2023-01-19T01:53:06.582Z,95354.75
2023-01-19T01:54:39.391Z,95352.91
2023-01-19T01:56:13.349Z,95346.44
2023-01-19T01:57:48.159Z,95356.13
2023-01-19T01:59:29.731Z,95356.00
2023-01-19T02:01:20.397Z,95346.78
2023-01-19T02:02:52.188Z,95347.97
2023-01-19T02:04:23.903Z,95346.91
2023-01-19T02:05:59.236Z,95347.97
2023-01-19T02:07:52.255Z,95344.19
2023-01-19T02:09:42.594Z,95344.38
2023-01-19T02:11:32.946Z,95348.66
2023-01-19T02:13:20.583Z,95348.47
2023-01-19T02:14:52.201Z,95351.56
2023-01-19T02:16:23.831Z,95349.72
2023-01-19T02:17:58.418Z,95357.59
2023-01-19T02:19:31.927Z,95361.72
2023-01-19T02:21:08.606Z,95353.72
2023-01-19T02:22:44.233Z,95360.59
2023-01-19T02:24:17.499Z,95364.78
2023-01-19T02:25:49.142Z,95364.59
2023-01-19T02:27:20.702Z,95368.28
2023-01-19T02:28:53.996Z,95379.16
2023-01-19T02:30:25.686Z,95376.53
2023-01-19T02:31:59.721Z,95374.41
2023-01-19T02:33:31.523Z,95379.91
2023-01-19T02:35:03.225Z,95382.03
2023-01-19T02:36:38.146Z,95383.97
2023-01-19T02:38:09.716Z,95383.50
2023-01-19T02:39:45.171Z,95377.56
2023-01-19T02:41:19.186Z,95389.38
2023-01-19T02:42:50.774Z,95387.00
2023-01-19T02:44:22.455Z,95385.16
2023-01-19T02:45:54.533Z,95384.44
2023-01-19T02:47:26.211Z,95392.78
2023-01-19T02:48:58.989Z,95388.44
2023-01-19T02:50:39.379Z,95398.22
2023-01-19T02:52:15.473Z,95394.25
2023-01-19T02:53:53.658Z,95396.00
2023-01-19T02:55:28.014Z,95395.69
2023-01-19T02:57:17.896Z,95399.28
2023-01-19T02:58:51.441Z,95395.00
2023-01-19T03:00:28.337Z,95401.63
2023-01-19T03:02:08.934Z,95404.72
2023-01-19T03:03:44.167Z,95398.22
2023-01-19T03:05:29.512Z,95396.00
2023-01-19T03:07:04.003Z,95399.66
2023-01-19T03:08:42.450Z,95399.31
2023-01-19T03:10:15.810Z,95402.50
2023-01-19T03:11:52.236Z,95396.69
2023-01-19T03:13:27.174Z,95395.44
2023-01-19T03:15:01.730Z,95397.34
2023-01-19T03:16:35.561Z,95402.88
2023-01-19T03:18:08.258Z,95400.66
2023-01-19T03:19:41.072Z,95401.31
2023-01-19T03:21:13.236Z,95402.28
2023-01-19T03:22:44.916Z,95405.97
2023-01-19T03:24:17.132Z,95402.22
2023-01-19T03:25:48.735Z,95398.81
2023-01-19T03:27:24.350Z,95402.69
2023-01-19T03:28:55.951Z,95397.38
2023-01-19T03:30:29.111Z,95389.53
2023-01-19T03:32:01.718Z,95391.38
2023-01-19T03:33:34.211Z,95398.34
2023-01-19T03:35:08.515Z,95396.78
2023-01-19T03:36:42.401Z,95398.53
2023-01-19T03:38:15.820Z,95397.28
2023-01-19T03:39:47.425Z,95391.75
2023-01-19T03:41:19.651Z,95395.31
2023-01-19T03:42:52.564Z,95393.59
2023-01-19T03:44:24.142Z,95395.53
2023-01-19T03:45:55.880Z,95389.03
2023-01-19T03:47:27.528Z,95394.84
2023-01-19T03:48:59.147Z,95392.34
2023-01-19T03:50:30.984Z,95393.41
2023-01-19T03:52:02.565Z,95390.00
2023-01-19T03:53:34.330Z,95404.63
2023-01-19T03:55:06.545Z,95400.00
2023-01-19T03:56:38.107Z,95404.81
2023-01-19T03:58:11.100Z,95404.44
2023-01-19T03:59:42.714Z,95405.03
2023-01-19T04:01:14.928Z,95401.72
2023-01-19T04:02:46.726Z,95405.03
2023-01-19T04:04:18.399Z,95406.78
2023-01-19T04:05:49.973Z,95407.53
2023-01-19T04:07:21.553Z,95411.25
2023-01-19T04:08:53.895Z,95406.88
2023-01-19T04:10:25.523Z,95407.25
2023-01-19T04:11:57.264Z,95404.06
2023-01-19T04:13:30.529Z,95406.88
2023-01-19T04:15:02.178Z,95414.03
2023-01-19T04:16:33.793Z,95411.03
2023-01-19T04:18:06.916Z,95405.31
2023-01-19T04:19:38.619Z,95413.47
2023-01-19T04:21:10.872Z,95411.53
2023-01-19T04:22:42.568Z,95412.97
2023-01-19T04:24:14.135Z,95413.28
2023-01-19T04:25:45.721Z,95413.84
2023-01-19T04:27:17.633Z,95414.41
2023-01-19T04:28:50.583Z,95420.25
2023-01-19T04:30:22.654Z,95420.63
2023-01-19T04:31:54.270Z,95421.78
2023-01-19T04:33:26.669Z,95422.06
2023-01-19T04:34:58.270Z,95428.16
2023-01-19T04:36:29.833Z,95417.72
2023-01-19T04:38:01.387Z,95426.63
2023-01-19T04:39:32.995Z,95420.91
2023-01-19T04:41:04.904Z,95419.44
2023-01-19T04:42:36.460Z,95428.38
2023-01-19T04:44:09.494Z,95421.19
2023-01-19T04:45:41.139Z,95423.13
2023-01-19T04:47:12.766Z,95424.19
2023-01-19T04:48:44.328Z,95419.38
2023-01-19T04:50:16.853Z,95420.91
2023-01-19T04:51:48.420Z,95424.59
2023-01-19T04:53:20.034Z,95426.16
2023-01-19T04:54:51.634Z,95424.78
2023-01-19T04:56:23.269Z,95423.53
2023-01-19T04:57:54.894Z,95419.56
2023-01-19T04:59:27.836Z,95427.22
2023-01-19T05:00:59.824Z,95424.78
2023-01-19T05:02:31.491Z,95436.09
2023-01-19T05:04:05.123Z,95430.59
2023-01-19T05:05:36.713Z,95435.44
2023-01-19T05:07:08.268Z,95429.31
2023-01-19T05:08:40.006Z,95432.03
2023-01-19T05:10:11.745Z,95430.31
2023-01-19T05:11:43.396Z,95431.06
2023-01-19T05:13:14.925Z,95430.88
2023-01-19T05:14:47.862Z,95432.06
2023-01-19T05:16:19.493Z,95435.81
2023-01-19T05:17:51.206Z,95432.03
2023-01-19T05:19:23.642Z,95425.84
2023-01-19T05:20:55.216Z,95429.16
2023-01-19T05:22:26.787Z,95439.72
2023-01-19T05:23:58.360Z,95431.47
2023-01-19T05:25:29.946Z,95438.16
2023-01-19T05:27:01.768Z,95441.25
2023-01-19T05:28:33.592Z,95436.31
2023-01-19T05:30:07.741Z,95438.34
2023-01-19T05:31:39.376Z,95437.69
2023-01-19T05:33:11.039Z,95441.34
2023-01-19T05:34:42.660Z,95447.16
2023-01-19T05:36:14.241Z,95449.09
2023-01-19T05:37:45.885Z,95447.84
2023-01-19T05:39:18.947Z,95447.72
2023-01-19T05:40:56.730Z,95444.03
2023-01-19T05:42:28.279Z,95442.22
2023-01-19T05:43:59.872Z,95454.41
2023-01-19T05:45:32.976Z,95451.63
2023-01-19T05:47:05.210Z,95442.00
2023-01-19T05:48:36.863Z,95443.56
2023-01-19T05:50:09.217Z,95446.75
2023-01-19T05:51:45.289Z,95443.06
2023-01-19T05:53:17.161Z,95446.66
2023-01-19T05:54:48.853Z,95444.63
2023-01-19T05:56:20.810Z,95446.25
2023-01-19T05:57:52.380Z,95463.50
2023-01-19T05:59:24.348Z,95454.72
2023-01-19T06:00:57.420Z,95454.13
2023-01-19T06:02:30.108Z,95466.09
2023-01-19T06:04:01.747Z,95464.94
2023-01-19T06:05:33.963Z,95466.69
2023-01-19T06:07:06.503Z,95469.22
2023-01-19T06:08:38.101Z,95468.13
2023-01-19T06:10:11.046Z,95472.22
2023-01-19T06:11:42.758Z,95477.53
2023-01-19T06:13:14.352Z,95473.84
2023-01-19T06:14:46.026Z,95477.16
2023-01-19T06:16:19.020Z,95474.25
2023-01-19T06:17:50.835Z,95479.28
2023-01-19T06:19:22.443Z,95476.22
2023-01-19T06:20:58.692Z,95479.19
2023-01-19T06:22:30.276Z,95485.44
2023-01-19T06:24:01.840Z,95478.50
2023-01-19T06:25:33.427Z,95485.66
2023-01-19T06:27:06.541Z,95477.81
2023-01-19T06:28:38.131Z,95483.44
2023-01-19T06:30:11.898Z,95487.28
2023-01-19T06:31:44.849Z,95480.03
2023-01-19T06:33:16.749Z,95478.00
2023-01-19T06:34:48.389Z,95485.97
2023-01-19T06:36:19.998Z,95494.97
2023-01-19T06:37:52.425Z,95489.31
2023-01-19T06:39:24.002Z,95485.38
2023-01-19T06:40:58.336Z,95493.59
2023-01-19T06:42:29.897Z,95490.22
2023-01-19T06:44:01.507Z,95485.38
2023-01-19T06:45:33.150Z,95494.38
2023-01-19T06:47:15.276Z,95496.59
2023-01-19T06:48:48.041Z,95496.28
2023-01-19T06:50:19.756Z,95493.47
2023-01-19T06:51:51.321Z,95495.22
2023-01-19T06:53:22.940Z,95500.72
2023-01-19T06:54:54.554Z,95504.69
2023-01-19T06:56:28.235Z,95505.19
2023-01-19T06:58:00.541Z,95503.69
2023-01-19T06:59:32.115Z,95502.22
2023-01-19T07:01:04.187Z,95506.25
2023-01-19T07:02:37.619Z,95511.75
2023-01-19T07:04:10.621Z,95508.44
2023-01-19T07:05:42.227Z,95515.69
2023-01-19T07:07:13.805Z,95509.06
2023-01-19T07:08:45.420Z,95513.91
2023-01-19T07:10:17.068Z,95519.84
2023-01-19T07:11:48.776Z,95519.72
2023-01-19T07:13:21.667Z,95526.22
2023-01-19T07:14:53.258Z,95524.69
2023-01-19T07:16:25.243Z,95535.13
2023-01-19T07:17:59.128Z,95530.75
2023-01-19T07:19:31.196Z,95533.97
2023-01-19T07:21:02.923Z,95539.28
2023-01-19T07:22:34.533Z,95537.75
2023-01-19T07:24:06.613Z,95534.22
2023-01-19T07:25:39.603Z,95538.22
2023-01-19T07:27:14.738Z,95542.34
2023-01-19T07:28:47.449Z,95543.53
2023-01-19T07:30:19.892Z,95541.28
2023-01-19T07:31:54.367Z,95543.44
2023-01-19T07:33:27.420Z,95543.75
2023-01-19T07:34:59.025Z,95548.19
2023-01-19T07:36:30.575Z,95550.38
2023-01-19T07:38:02.165Z,95551.78
2023-01-19T07:39:36.498Z,95554.56
2023-01-19T07:41:09.173Z,95555.47
2023-01-19T07:42:45.706Z,95555.94
2023-01-19T07:44:17.302Z,95561.13
2023-01-19T07:45:48.938Z,95555.03
2023-01-19T07:47:20.687Z,95559.00
2023-01-19T07:48:53.614Z,95560.56
2023-01-19T07:50:27.597Z,95561.13
2023-01-19T07:51:59.176Z,95569.16
2023-01-19T07:53:30.791Z,95570.03
2023-01-19T07:55:02.404Z,95561.75
2023-01-19T07:56:34.218Z,95563.28
2023-01-19T07:58:07.350Z,95559.22
2023-01-19T07:59:39.186Z,95566.63
2023-01-19T08:01:11.905Z,95569.78
2023-01-19T08:02:43.975Z,95573.47
2023-01-19T08:04:19.048Z,95571.91
2023-01-19T08:05:51.224Z,95568.81
2023-01-19T08:07:22.846Z,95573.63
2023-01-19T08:08:54.437Z,95573.13
2023-01-19T08:10:26.746Z,95572.06
2023-01-19T08:11:58.364Z,95573.41
2023-01-19T08:13:29.976Z,95568.88
2023-01-19T08:15:01.558Z,95571.50
2023-01-19T08:16:33.225Z,95566.34
2023-01-19T08:18:05.714Z,95571.50
2023-01-19T08:19:41.402Z,95564.44
2023-01-19T08:21:13.103Z,95570.34
2023-01-19T08:22:47.095Z,95577.13
2023-01-19T08:24:19.728Z,95563.84
2023-01-19T08:25:51.453Z,95570.94
2023-01-19T08:27:23.040Z,95562.50
2023-01-19T08:28:54.626Z,95564.34
2023-01-19T08:30:26.929Z,95565.31
2023-01-19T08:32:00.159Z,95575.00
2023-01-19T08:33:31.945Z,95571.53
2023-01-19T08:35:06.178Z,95573.56
2023-01-19T08:36:37.752Z,95575.13
2023-01-19T08:38:09.677Z,95576.09
2023-01-19T08:39:41.268Z,95574.28
2023-01-19T08:41:13.123Z,95577.38
2023-01-19T08:42:44.816Z,95578.19
2023-01-19T08:44:16.523Z,95573.44
2023-01-19T08:45:50.539Z,95578.94
2023-01-19T08:47:22.173Z,95579.34
2023-01-19T08:48:54.934Z,95573.25
2023-01-19T08:50:28.119Z,95580.41
2023-01-19T08:51:59.678Z,95586.44
2023-01-19T08:53:31.240Z,95584.28
2023-01-19T08:55:02.870Z,95576.44
2023-01-19T08:56:34.452Z,95589.44
2023-01-19T08:58:06.199Z,95579.84
2023-01-19T08:59:38.202Z,95583.31
2023-01-19T09:01:10.069Z,95576.94
2023-01-19T09:02:41.760Z,95583.53
2023-01-19T09:04:13.373Z,95592.44
2023-01-19T09:05:46.382Z,95598.16
2023-01-19T09:07:18.534Z,95594.88
2023-01-19T09:08:50.105Z,95600.38
2023-01-19T09:10:21.734Z,95602.03
2023-01-19T09:11:53.865Z,95601.81
2023-01-19T09:13:25.470Z,95603.88
2023-01-19T09:14:57.074Z,95602.72
2023-01-19T09:16:29.296Z,95606.69
2023-01-19T09:18:02.297Z,95605.72
2023-01-19T09:19:35.156Z,95601.53
2023-01-19T09:21:08.753Z,95611.22
2023-01-19T09:22:40.295Z,95607.91
2023-01-19T09:24:11.926Z,95609.09
2023-01-19T09:25:44.431Z,95603.00
2023-01-19T09:27:16.105Z,95607.84
2023-01-19T09:28:47.731Z,95602.16
2023-01-19T09:30:19.523Z,95607.84
2023-01-19T09:31:51.184Z,95603.03
2023-01-19T09:33:23.021Z,95605.09
2023-01-19T09:34:56.445Z,95606.66
2023-01-19T09:36:30.133Z,95602.09
2023-01-19T09:38:02.063Z,95608.59
2023-01-19T09:39:33.978Z,95610.25
2023-01-19T09:41:12.615Z,95607.03
2023-01-19T09:42:44.668Z,95603.84
2023-01-19T09:44:17.451Z,95604.34
2023-01-19T09:45:50.538Z,95615.59
2023-01-19T09:47:25.385Z,95612.09
2023-01-19T09:48:58.421Z,95608.50
2023-01-19T09:50:31.950Z,95607.94
2023-01-19T09:52:05.314Z,95606.47
2023-01-19T09:53:43.512Z,95615.19
2023-01-19T09:55:19.610Z,95611.81
2023-01-19T09:56:52.873Z,95606.28
2023-01-19T09:58:24.550Z,95609.97
2023-01-19T09:59:59.774Z,95605.72
2023-01-19T10:01:55.351Z,95605.31
2023-01-19T10:03:27.208Z,95606.91
2023-01-19T10:05:00.117Z,95609.72
2023-01-19T10:06:31.718Z,95612.22
2023-01-19T10:08:13.361Z,95607.09
2023-01-19T10:09:51.178Z,95606.38
2023-01-19T10:11:34.371Z,95602.63
2023-01-19T10:13:25.899Z,95605.16
2023-01-19T10:14:59.410Z,95603.78
2023-01-19T10:16:35.127Z,95601.28
2023-01-19T10:18:13.852Z,95600.31
2023-01-19T10:19:46.836Z,95600.50
2023-01-19T10:21:19.955Z,95601.28
2023-01-19T10:22:51.930Z,95601.75
2023-01-19T10:24:26.697Z,95592.94
2023-01-19T10:25:59.177Z,95597.31
2023-01-19T10:27:31.531Z,95596.41
2023-01-19T10:29:05.375Z,95599.72
2023-01-19T10:30:37.027Z,95587.97
2023-01-19T10:32:10.049Z,95590.59
2023-01-19T10:33:41.695Z,95588.88
2023-01-19T10:35:14.526Z,95581.50
2023-01-19T10:36:47.552Z,95583.44
2023-01-19T10:38:22.372Z,95577.63
2023-01-19T10:39:56.190Z,95574.13
2023-01-19T10:41:31.717Z,95573.34
2023-01-19T10:43:37.493Z,95573.25
2023-01-19T10:45:14.809Z,95573.97
2023-01-19T10:46:47.166Z,95571.06
2023-01-19T10:48:18.728Z,95572.47
2023-01-19T10:49:50.449Z,95577.53
2023-01-19T10:51:22.253Z,95572.38
2023-01-19T10:52:54.535Z,95572.47
2023-01-19T10:54:26.211Z,95567.13
2023-01-19T10:56:14.827Z,95574.09
2023-01-19T10:57:48.749Z,95571.84
2023-01-19T10:59:34.739Z,95574.56
2023-01-19T11:01:14.719Z,95580.81
2023-01-19T11:02:49.843Z,95576.59
2023-01-19T11:04:25.683Z,95567.97
2023-01-19T11:05:58.987Z,95561.09
2023-01-19T11:07:32.957Z,95577.00
2023-01-19T11:09:12.510Z,95569.63
2023-01-19T11:10:44.099Z,95560.44
2023-01-19T11:12:18.009Z,95572.06
2023-01-19T11:14:03.752Z,95568.97
2023-01-19T11:15:36.274Z,95566.53
2023-01-19T11:17:10.785Z,95572.34
2023-01-19T11:18:42.611Z,95559.81
2023-01-19T11:20:19.967Z,95558.19
2023-01-19T11:21:51.579Z,95563.75
2023-01-19T11:23:25.890Z,95562.91
2023-01-19T11:24:58.578Z,95569.50
2023-01-19T11:26:32.593Z,95562.84
2023-01-19T11:28:05.810Z,95559.22
2023-01-19T11:29:37.555Z,95557.97
2023-01-19T11:31:17.363Z,95558.91
2023-01-19T11:32:49.327Z,95561.13
2023-01-19T11:34:26.393Z,95563.75
2023-01-19T11:36:05.966Z,95558.56
2023-01-19T11:37:37.626Z,95558.84
2023-01-19T11:39:20.919Z,95563.25
2023-01-19T11:40:54.233Z,95552.28
2023-01-19T11:42:25.930Z,95561.69
2023-01-19T11:44:02.112Z,95559.91
2023-01-19T11:45:33.813Z,95563.53
2023-01-19T11:47:06.723Z,95556.34
2023-01-19T11:48:40.543Z,95556.50
2023-01-19T11:50:14.809Z,95557.47
2023-01-19T11:51:51.067Z,95555.00
2023-01-19T11:53:26.715Z,95551.44
2023-01-19T11:55:00.874Z,95548.94
2023-01-19T11:56:32.434Z,95560.09
2023-01-19T11:58:04.385Z,95555.63
2023-01-19T11:59:37.648Z,95551.19
2023-01-19T12:01:12.943Z,95550.00
2023-01-19T12:02:45.211Z,95546.06
2023-01-19T12:04:17.828Z,95549.81
2023-01-19T12:05:51.586Z,95545.94
2023-01-19T12:07:25.597Z,95539.50
2023-01-19T12:08:58.514Z,95548.56
2023-01-19T12:10:31.394Z,95548.09
2023-01-19T12:12:04.129Z,95542.44
2023-01-19T12:13:35.747Z,95549.53
2023-01-19T12:15:12.091Z,95537.66
2023-01-19T12:16:43.899Z,95542.81
2023-01-19T12:18:17.951Z,95546.69
2023-01-19T12:19:54.864Z,95540.53
2023-01-19T12:21:26.824Z,95542.50
2023-01-19T12:23:03.260Z,95551.94
2023-01-19T12:24:36.600Z,95549.44
2023-01-19T12:26:29.341Z,95544.22
2023-01-19T12:28:00.965Z,95547.97
2023-01-19T12:29:33.694Z,95551.66
2023-01-19T12:31:07.972Z,95548.91
2023-01-19T12:32:39.705Z,95546.28
2023-01-19T12:34:38.575Z,95544.53
2023-01-19T12:36:10.957Z,95542.72
2023-01-19T12:37:42.866Z,95542.72
2023-01-19T12:39:17.063Z,95545.94
2023-01-19T12:40:48.637Z,95539.41
2023-01-19T12:42:21.393Z,95542.81
2023-01-19T12:44:30.724Z,95543.31
2023-01-19T12:46:02.374Z,95543.75
2023-01-19T12:47:35.351Z,95541.78
2023-01-19T12:49:09.844Z,95543.28
2023-01-19T12:50:41.556Z,95546.22
2023-01-19T12:52:22.654Z,95546.50
2023-01-19T12:53:55.068Z,95543.28
2023-01-19T12:55:27.277Z,95547.03
2023-01-19T12:56:59.702Z,95549.41
2023-01-19T12:58:31.887Z,95547.72
2023-01-19T13:00:25.122Z,95546.63
2023-01-19T13:02:46.382Z,95547.72
2023-01-19T13:04:30.978Z,95549.16
2023-01-19T13:06:02.589Z,95545.56
2023-01-19T13:08:08.330Z,95546.94
2023-01-19T13:09:40.044Z,95549.63
2023-01-19T13:11:16.788Z,95551.06
2023-01-19T13:13:12.863Z,95548.91
2023-01-19T13:14:44.471Z,95546.75
2023-01-19T13:16:57.528Z,95543.34
2023-01-19T13:18:29.752Z,95537.34
2023-01-19T13:23:02.725Z,95542.75
2023-01-19T13:25:04.734Z,95531.66
2023-01-19T13:26:38.412Z,95540.91
2023-01-19T13:28:10.218Z,95523.94
2023-01-19T13:29:41.867Z,95536.44
2023-01-19T13:31:13.562Z,95534.41
2023-01-19T13:32:45.202Z,95532.09
2023-01-19T13:34:18.205Z,95527.88
2023-01-19T13:35:51.670Z,95531.25
2023-01-19T13:37:24.212Z,95531.66
2023-01-19T13:38:56.249Z,95525.03
2023-01-19T13:40:33.452Z,95531.56
2023-01-19T13:42:05.903Z,95531.06
2023-01-19T13:43:37.578Z,95527.41
2023-01-19T13:45:17.025Z,95530.97
2023-01-19T13:46:48.619Z,95536.97
2023-01-19T13:48:22.201Z,95535.94
2023-01-19T13:49:56.294Z,95530.69
2023-01-19T13:51:27.900Z,95525.75
2023-01-19T13:52:59.594Z,95531.28
2023-01-19T13:54:31.211Z,95531.94
2023-01-19T13:56:20.742Z,95524.56
2023-01-19T13:57:52.640Z,95528.19
2023-01-19T13:59:24.241Z,95527.72
2023-01-19T14:00:55.847Z,95527.44
2023-01-19T14:02:27.495Z,95523.16
2023-01-19T14:03:59.512Z,95526.28
2023-01-19T14:05:31.996Z,95531.22
2023-01-19T14:07:05.221Z,95519.59
2023-01-19T14:08:36.855Z,95519.88
2023-01-19T14:10:12.823Z,95527.97
2023-01-19T14:11:46.809Z,95529.28
2023-01-19T14:13:19.749Z,95527.75
2023-01-19T14:14:51.399Z,95519.53
2023-01-19T14:16:23.820Z,95524.03
2023-01-19T14:18:09.338Z,95525.84
2023-01-19T14:19:47.937Z,95526.03
2023-01-19T14:21:19.595Z,95520.19
2023-01-19T14:22:51.780Z,95523.91
2023-01-19T14:24:23.927Z,95535.75
2023-01-19T14:25:55.540Z,95531.28
2023-01-19T14:27:28.448Z,95528.94
2023-01-19T14:29:00.923Z,95528.19
2023-01-19T14:30:32.538Z,95528.78
2023-01-19T14:32:06.862Z,95523.38
2023-01-19T14:33:41.383Z,95527.34
2023-01-19T14:35:13.590Z,95526.16
2023-01-19T14:36:45.262Z,95522.78
2023-01-19T14:38:16.801Z,95522.94
2023-01-19T14:39:49.421Z,95529.13
2023-01-19T14:41:24.721Z,95525.09
2023-01-19T14:43:00.106Z,95529.13
2023-01-19T14:44:33.874Z,95527.72
2023-01-19T14:46:05.449Z,95528.63
2023-01-19T14:47:37.874Z,95516.13
2023-01-19T14:49:17.411Z,95520.38
2023-01-19T14:51:02.427Z,95522.41
2023-01-19T14:52:37.677Z,95520.44
2023-01-19T14:54:12.101Z,95515.84
2023-01-19T14:55:45.465Z,95520.81
2023-01-19T14:57:17.025Z,95518.91
2023-01-19T14:58:49.926Z,95519.34
2023-01-19T15:00:22.041Z,95520.44
2023-01-19T15:01:54.084Z,95520.75
2023-01-19T15:03:38.583Z,95516.97
2023-01-19T15:05:15.044Z,95512.50
2023-01-19T15:06:47.208Z,95521.00
2023-01-19T15:08:20.067Z,95517.13
2023-01-19T15:09:51.629Z,95523.59
2023-01-19T15:11:24.444Z,95521.56
2023-01-19T15:12:56.023Z,95528.38
2023-01-19T15:14:29.045Z,95524.97
2023-01-19T15:16:00.649Z,95525.75
2023-01-19T15:17:32.206Z,95522.47
2023-01-19T15:19:03.971Z,95521.09
2023-01-19T15:20:35.552Z,95523.56
2023-01-19T15:22:10.992Z,95520.16
2023-01-19T15:23:42.568Z,95528.03
2023-01-19T15:25:14.643Z,95521.25
2023-01-19T15:26:46.252Z,95522.34
2023-01-19T15:28:18.743Z,95522.03
2023-01-19T15:29:51.749Z,95521.88
2023-01-19T15:31:23.986Z,95524.03
2023-01-19T15:32:55.630Z,95521.84
2023-01-19T15:34:27.196Z,95522.78
2023-01-19T15:35:58.761Z,95528.94
2023-01-19T15:37:30.578Z,95523.84
2023-01-19T15:39:02.147Z,95528.63
2023-01-19T15:40:33.824Z,95523.19
2023-01-19T15:42:09.212Z,95523.78
2023-01-19T15:43:40.875Z,95522.25
2023-01-19T15:45:34.838Z,95525.34
2023-01-19T15:47:06.464Z,95520.88
2023-01-19T15:48:38.035Z,95517.47
2023-01-19T15:50:10.851Z,95519.31
2023-01-19T15:51:42.480Z,95518.56
2023-01-19T15:53:14.765Z,95521.47
2023-01-19T15:54:46.387Z,95512.81
2023-01-19T15:56:19.377Z,95518.25
2023-01-19T15:57:50.944Z,95511.44
2023-01-19T15:59:23.673Z,95510.16
2023-01-19T16:00:57.398Z,95514.81
2023-01-19T16:02:29.192Z,95514.50
2023-01-19T16:04:01.909Z,95516.84
2023-01-19T16:05:42.579Z,95512.03
2023-01-19T16:07:14.918Z,95515.41
2023-01-19T16:08:46.503Z,95517.56
2023-01-19T16:10:18.340Z,95519.25
2023-01-19T16:11:49.901Z,95516.91
2023-01-19T16:13:21.726Z,95510.13
2023-01-19T16:14:53.314Z,95517.88
2023-01-19T16:16:26.728Z,95517.88
2023-01-19T16:17:58.471Z,95520.78
2023-01-19T16:19:30.129Z,95515.06
2023-01-19T16:21:01.692Z,95518.00
2023-01-19T16:22:33.297Z,95516.16
2023-01-19T16:24:05.142Z,95510.44
2023-01-19T16:25:36.811Z,95513.66
2023-01-19T16:27:08.859Z,95518.59
2023-01-19T16:28:40.421Z,95522.00
2023-01-19T16:30:13.067Z,95515.38
2023-01-19T16:31:46.116Z,95515.50
2023-01-19T16:33:17.672Z,95514.25
2023-01-19T16:34:49.326Z,95513.59
2023-01-19T16:36:22.899Z,95516.97
2023-01-19T16:37:54.475Z,95516.69
2023-01-19T16:39:26.026Z,95518.34
2023-01-19T16:40:57.579Z,95519.00
2023-01-19T16:42:29.143Z,95514.06
2023-01-19T16:44:00.726Z,95519.44
2023-01-19T16:45:32.377Z,95523.91
2023-01-19T16:47:05.371Z,95521.16
2023-01-19T16:48:37.219Z,95521.16
2023-01-19T16:50:10.775Z,95516.97
2023-01-19T16:51:42.909Z,95523.78
2023-01-19T16:53:14.454Z,95523.78
2023-01-19T16:54:46.192Z,95519.31
2023-01-19T16:56:17.906Z,95519.13
2023-01-19T16:57:49.594Z,95516.50
2023-01-19T16:59:21.973Z,95515.59
2023-01-19T17:00:53.637Z,95518.19
2023-01-19T17:02:26.806Z,95507.88
2023-01-19T17:03:58.383Z,95517.69
2023-01-19T17:05:29.943Z,95514.31
2023-01-19T17:07:01.553Z,95516.16
2023-01-19T17:08:33.578Z,95518.19
2023-01-19T17:10:06.528Z,95513.53
2023-01-19T17:11:40.176Z,95516.03
2023-01-19T17:13:11.828Z,95510.13
2023-01-19T17:14:43.439Z,95509.53
2023-01-19T17:16:15.094Z,95512.63
2023-01-19T17:17:48.043Z,95505.19
2023-01-19T17:19:20.228Z,95514.91
2023-01-19T17:20:51.818Z,95506.28
2023-01-19T17:22:23.385Z,95513.38
2023-01-19T17:23:55.586Z,95511.81
2023-01-19T17:25:27.174Z,95505.97
2023-01-19T17:26:58.792Z,95506.56
2023-01-19T17:28:30.413Z,95504.84
2023-01-19T17:30:02.101Z,95510.44
2023-01-19T17:31:33.894Z,95506.63
2023-01-19T17:33:06.818Z,95502.22
2023-01-19T17:34:38.528Z,95501.63
2023-01-19T17:36:12.716Z,95499.00
2023-01-19T17:37:44.290Z,95511.03
2023-01-19T17:39:16.816Z,95507.75
2023-01-19T17:40:48.399Z,95503.59
2023-01-19T17:42:19.975Z,95507.94
2023-01-19T17:43:52.098Z,95508.25
2023-01-19T17:45:23.685Z,95508.53
2023-01-19T17:46:56.347Z,95511.75
2023-01-19T17:48:29.659Z,95505.44
2023-01-19T17:50:01.367Z,95513.47
2023-01-19T17:51:33.027Z,95508.38
2023-01-19T17:53:04.707Z,95507.00
2023-01-19T17:54:36.281Z,95510.34
2023-01-19T17:56:09.167Z,95505.28
2023-01-19T17:57:40.755Z,95506.03
2023-01-19T17:59:12.360Z,95505.44
2023-01-19T18:00:43.925Z,95506.03
2023-01-19T18:02:15.574Z,95507.59
2023-01-19T18:03:48.594Z,95505.88
2023-01-19T18:05:20.216Z,95497.75
2023-01-19T18:06:51.775Z,95499.47
2023-01-19T18:08:23.339Z,95502.56
2023-01-19T18:09:56.929Z,95505.88
2023-01-19T18:11:28.506Z,95502.22
2023-01-19T18:13:00.090Z,95504.72
2023-01-19T18:14:31.723Z,95497.56
2023-01-19T18:16:04.129Z,95497.75
2023-01-19T18:17:35.835Z,95508.03
2023-01-19T18:19:08.767Z,95503.75
2023-01-19T18:20:40.834Z,95498.03
2023-01-19T18:22:12.496Z,95500.66
2023-01-19T18:23:45.113Z,95495.53